^^
Saratoga-Weather Station Historical Data
Daily Summary for April 13, 2020 Units:  English    Metric   Both
Daily Weekly Monthly Yearly Custom
  High: Low: Average:
Temperature: 84.2 °F 50.5 °F 65.8 °F
Dew Point: 57.4 °F 39.4 °F 50.2 °F
Humidity: 94% 21% 62%
Wind Speed: 6mph 0mph 0.6mph
Wind Gust: 7mph - -
Wind- - SE
Pressure: 30.3 in 30.2 in -
Precipitation: 0 in    
Historical Graphs
 
 
Tabular Data for April 13, 2020
Time Temperature Dew Point Pressure Wind Wind Speed Wind Gust Humidity Rainfall Rate (Hourly) solar
00:04 62.8 °F 51.3 °F 30.2 in West 0.9 mph 5 mph 66% 0 in 0 W/m2
00:09 62.8 °F 51.3 °F 30.2 in WSW 4 mph 6 mph 66% 0 in 0 W/m2
00:14 63 °F 51.1 °F 30.2 in WSW 2 mph 6 mph 65% 0 in 0 W/m2
00:19 63.1 °F 51.3 °F 30.2 in WNW 2 mph 5 mph 65% 0 in 0 W/m2
00:24 63.1 °F 51.3 °F 30.2 in WSW 2 mph 4 mph 65% 0 in 0 W/m2
00:29 63.1 °F 51.3 °F 30.2 in WSW 4 mph 4 mph 65% 0 in 0 W/m2
00:34 63.1 °F 51.6 °F 30.2 in WSW 0.9 mph 3 mph 66% 0 in 0 W/m2
00:39 63.1 °F 51.6 °F 30.2 in WSW 2.9 mph 4 mph 66% 0 in 0 W/m2
00:44 63 °F 51.4 °F 30.2 in WSW 2 mph 3 mph 66% 0 in 0 W/m2
00:49 63 °F 51.4 °F 30.2 in WSW 0.9 mph 4 mph 66% 0 in 0 W/m2
00:55 63 °F 51.8 °F 30.2 in WSW 2 mph 3 mph 67% 0 in 0 W/m2
01:00 62.8 °F 51.6 °F 30.2 in Calm     67% 0 in 0 W/m2
01:05 62.2 °F 51.1 °F 30.2 in Calm     67% 0 in 0 W/m2
01:10 61.9 °F 51.3 °F 30.2 in Calm     68% 0 in 0 W/m2
01:15 61.2 °F 50.9 °F 30.2 in WSW 0.9 mph 2 mph 69% 0 in 0 W/m2
01:20 60.6 °F 51.1 °F 30.2 in Calm   1 mph 71% 0 in 0 W/m2
01:25 60.1 °F 51.1 °F 30.2 in Calm   2 mph 72% 0 in 0 W/m2
01:30 59.5 °F 50.9 °F 30.2 in Calm   1 mph 73% 0 in 0 W/m2
01:35 59.4 °F 50.7 °F 30.2 in Calm     73% 0 in 0 W/m2
01:40 58.8 °F 50.5 °F 30.2 in Calm     74% 0 in 0 W/m2
01:45 58.5 °F 50.5 °F 30.2 in WSW 0.9 mph 1 mph 75% 0 in 0 W/m2
01:50 58.3 °F 50.7 °F 30.2 in Calm     76% 0 in 0 W/m2
01:55 57.9 °F 50.7 °F 30.2 in Calm     77% 0 in 0 W/m2
02:00 57.7 °F 50.5 °F 30.2 in Calm     77% 0 in 0 W/m2
02:05 57.6 °F 50.7 °F 30.2 in Calm     78% 0 in 0 W/m2
02:10 57.2 °F 50.7 °F 30.2 in Calm     79% 0 in 0 W/m2
02:15 57 °F 50.5 °F 30.2 in Calm     79% 0 in 0 W/m2
02:20 57 °F 50.9 °F 30.2 in Calm     80% 0 in 0 W/m2
02:25 56.8 °F 50.7 °F 30.2 in Calm     80% 0 in 0 W/m2
02:30 56.7 °F 50.9 °F 30.2 in Calm     81% 0 in 0 W/m2
02:35 56.5 °F 50.7 °F 30.2 in Calm     81% 0 in 0 W/m2
02:40 56.3 °F 50.5 °F 30.2 in Calm     81% 0 in 0 W/m2
02:45 56.1 °F 50.7 °F 30.2 in Calm     82% 0 in 0 W/m2
02:50 55.9 °F 50.5 °F 30.2 in Calm     82% 0 in 0 W/m2
02:56 55.9 °F 50.9 °F 30.2 in Calm     83% 0 in 0 W/m2
03:01 55.9 °F 51.3 °F 30.2 in WSW 2 mph 2 mph 84% 0 in 0 W/m2
03:06 55.9 °F 51.3 °F 30.2 in Calm   1 mph 84% 0 in 0 W/m2
03:11 55.9 °F 51.4 °F 30.2 in Calm     85% 0 in 0 W/m2
03:16 56.1 °F 51.4 °F 30.2 in Calm     84% 0 in 0 W/m2
03:21 56.1 °F 51.6 °F 30.2 in Calm     85% 0 in 0 W/m2
03:26 56.1 °F 51.4 °F 30.2 in Calm     84% 0 in 0 W/m2
03:31 56.1 °F 51.4 °F 30.2 in Calm     84% 0 in 0 W/m2
03:36 55.9 °F 51.3 °F 30.2 in Calm     84% 0 in 0 W/m2
03:41 55.9 °F 51.3 °F 30.2 in Calm     84% 0 in 0 W/m2
03:46 55.8 °F 51.1 °F 30.2 in Calm     84% 0 in 0 W/m2
03:51 55.6 °F 51.1 °F 30.2 in Calm     85% 0 in 0 W/m2
03:56 55.6 °F 51.1 °F 30.2 in Calm     85% 0 in 0 W/m2
04:01 55.2 °F 50.7 °F 30.2 in Calm     85% 0 in 0 W/m2
04:06 55 °F 50.9 °F 30.2 in Calm     86% 0 in 0 W/m2
04:11 54.9 °F 50.7 °F 30.2 in Calm     86% 0 in 0 W/m2
04:17 54.9 °F 50.7 °F 30.2 in Calm     86% 0 in 0 W/m2
04:22 54.9 °F 51.1 °F 30.2 in Calm     87% 0 in 0 W/m2
04:27 54.7 °F 50.9 °F 30.2 in Calm   1 mph 87% 0 in 0 W/m2
04:32 54.7 °F 50.9 °F 30.2 in Calm   1 mph 87% 0 in 0 W/m2
04:37 54.7 °F 50.9 °F 30.2 in Calm   1 mph 87% 0 in 0 W/m2
04:42 54.5 °F 50.7 °F 30.2 in Calm     87% 0 in 0 W/m2
04:47 54.3 °F 50.5 °F 30.2 in Calm   1 mph 87% 0 in 0 W/m2
04:52 54.3 °F 50.5 °F 30.2 in Calm     87% 0 in 0 W/m2
04:57 54.1 °F 50.4 °F 30.2 in Calm     87% 0 in 0 W/m2
05:02 54 °F 50.5 °F 30.2 in Calm     88% 0 in 0 W/m2
05:07 54 °F 50.5 °F 30.2 in Calm     88% 0 in 0 W/m2
05:12 53.8 °F 50.4 °F 30.2 in Calm     88% 0 in 0 W/m2
05:17 53.4 °F 50 °F 30.2 in Calm     88% 0 in 0 W/m2
05:22 53.2 °F 50 °F 30.2 in Calm     89% 0 in 0 W/m2
05:27 53.1 °F 49.8 °F 30.2 in Calm     89% 0 in 0 W/m2
05:32 53.1 °F 49.8 °F 30.2 in Calm     89% 0 in 0 W/m2
05:37 52.9 °F 50 °F 30.2 in Calm     90% 0 in 0 W/m2
05:42 52.9 °F 50.4 °F 30.2 in Calm     91% 0 in 0 W/m2
05:47 52.9 °F 50.4 °F 30.2 in Calm     91% 0 in 0 W/m2
05:52 52.7 °F 50.2 °F 30.2 in Calm     91% 0 in 0 W/m2
05:57 52.5 °F 50 °F 30.2 in Calm     91% 0 in 0 W/m2
06:02 52.5 °F 50 °F 30.2 in Calm     91% 0 in 0 W/m2
06:07 52.3 °F 49.8 °F 30.2 in Calm     91% 0 in 0 W/m2
06:12 52.2 °F 49.6 °F 30.2 in Calm     91% 0 in 0 W/m2
06:17 52.2 °F 49.8 °F 30.2 in Calm     92% 0 in 0 W/m2
06:22 52 °F 49.6 °F 30.2 in Calm     92% 0 in 0 W/m2
06:27 52 °F 49.6 °F 30.2 in Calm     92% 0 in 0 W/m2
06:32 51.8 °F 49.6 °F 30.2 in Calm     92% 0 in 0 W/m2
06:37 51.6 °F 49.5 °F 30.2 in Calm     92% 0 in 0 W/m2
06:42 51.4 °F 49.3 °F 30.2 in Calm     92% 0 in 0 W/m2
06:47 51.4 °F 49.3 °F 30.2 in Calm     92% 0 in 0 W/m2
06:52 51.4 °F 49.3 °F 30.2 in Calm     92% 0 in 0 W/m2
06:57 51.3 °F 49.1 °F 30.2 in Calm     92% 0 in 0 W/m2
07:02 51.1 °F 48.9 °F 30.2 in Calm     92% 0 in 0 W/m2
07:07 50.7 °F 48.6 °F 30.2 in Calm     92% 0 in 0 W/m2
07:12 50.7 °F 48.6 °F 30.2 in Calm     92% 0 in 0 W/m2
07:17 50.5 °F 48.6 °F 30.2 in Calm     93% 0 in 5 W/m2
07:22 50.7 °F 48.7 °F 30.2 in Calm     93% 0 in 9 W/m2
07:27 50.7 °F 48.7 °F 30.2 in Calm     93% 0 in 9 W/m2
07:32 50.9 °F 48.9 °F 30.2 in Calm     93% 0 in 11 W/m2
07:37 50.9 °F 48.9 °F 30.2 in Calm     93% 0 in 12 W/m2
07:43 51.1 °F 49.1 °F 30.2 in Calm     93% 0 in 14 W/m2
07:48 51.1 °F 49.1 °F 30.2 in Calm     93% 0 in 16 W/m2
07:53 50.9 °F 49.3 °F 30.2 in Calm     94% 0 in 16 W/m2
07:58 51.1 °F 49.5 °F 30.3 in Calm     94% 0 in 18 W/m2
08:03 51.1 °F 49.5 °F 30.3 in Calm     94% 0 in 19 W/m2
08:08 51.3 °F 49.6 °F 30.3 in Calm     94% 0 in 19 W/m2
08:13 51.4 °F 49.8 °F 30.3 in Calm     94% 0 in 21 W/m2
08:18 51.8 °F 50.2 °F 30.3 in Calm     94% 0 in 23 W/m2
08:23 52 °F 50.4 °F 30.3 in Calm     94% 0 in 26 W/m2
08:28 52.2 °F 50.5 °F 30.3 in Calm     94% 0 in 102 W/m2
08:33 52.5 °F 50.9 °F 30.3 in Calm     94% 0 in 123 W/m2
08:38 52.9 °F 51.3 °F 30.3 in Calm     94% 0 in 134 W/m2
08:43 53.1 °F 51.4 °F 30.3 in Calm     94% 0 in 151 W/m2
08:48 53.4 °F 51.8 °F 30.3 in Calm     94% 0 in 162 W/m2
08:53 54 °F 52 °F 30.3 in Calm     93% 0 in 33 W/m2
08:58 54.5 °F 52.5 °F 30.3 in Calm     93% 0 in 40 W/m2
09:03 55 °F 52.7 °F 30.3 in Calm     92% 0 in 188 W/m2
09:08 55.6 °F 53.1 °F 30.3 in Calm     91% 0 in 220 W/m2
09:13 56.1 °F 53.2 °F 30.3 in Calm   1 mph 90% 0 in 237 W/m2
09:18 56.8 °F 53.6 °F 30.3 in ENE 2 mph 2 mph 89% 0 in 169 W/m2
09:23 57.6 °F 53.4 °F 30.3 in Calm   1 mph 86% 0 in 39 W/m2
09:28 58.3 °F 53.4 °F 30.3 in NNE 2 mph 3 mph 84% 0 in 39 W/m2
09:33 58.8 °F 53.6 °F 30.3 in ESE 0.9 mph 2 mph 83% 0 in 40 W/m2
09:38 59.5 °F 53.8 °F 30.3 in Calm   3 mph 81% 0 in 40 W/m2
09:43 60.1 °F 54.3 °F 30.3 in ESE 0.9 mph 2 mph 81% 0 in 42 W/m2
09:48 60.8 °F 54.7 °F 30.3 in North 0.9 mph 1 mph 80% 0 in 42 W/m2
09:53 61.2 °F 54.3 °F 30.3 in North 0.9 mph 2 mph 78% 0 in 42 W/m2
09:58 61.3 °F 54.5 °F 30.3 in Calm     78% 0 in 44 W/m2
10:03 61.9 °F 54.9 °F 30.3 in North 2 mph 2 mph 78% 0 in 44 W/m2
10:08 62.4 °F 54.7 °F 30.3 in SSW 0.9 mph 2 mph 76% 0 in 44 W/m2
10:13 62.8 °F 54.7 °F 30.3 in WNW 0.9 mph 2 mph 75% 0 in 46 W/m2
10:18 63 °F 55.2 °F 30.3 in WNW 0.9 mph 1 mph 76% 0 in 46 W/m2
10:23 63.1 °F 55 °F 30.3 in WNW 0.9 mph 1 mph 75% 0 in 47 W/m2
10:28 63.5 °F 55.4 °F 30.3 in West 2 mph 2 mph 75% 0 in 47 W/m2
10:34 63.7 °F 55.2 °F 30.3 in West 2 mph 3 mph 74% 0 in 47 W/m2
10:39 63.9 °F 55.4 °F 30.3 in Calm   2 mph 74% 0 in 46 W/m2
10:44 64.6 °F 56.1 °F 30.3 in Calm   3 mph 74% 0 in 46 W/m2
10:49 65.3 °F 56.5 °F 30.3 in ENE 0.9 mph 4 mph 73% 0 in 46 W/m2
10:54 66 °F 56.3 °F 30.3 in ENE 2 mph 2 mph 71% 0 in 46 W/m2
10:59 66.4 °F 56.3 °F 30.3 in ESE 0.9 mph 4 mph 70% 0 in 46 W/m2
11:04 66.7 °F 56.7 °F 30.3 in Calm   2 mph 70% 0 in 47 W/m2
11:09 66.9 °F 56.5 °F 30.3 in ESE 2 mph 3 mph 69% 0 in 47 W/m2
11:14 67.3 °F 56.3 °F 30.3 in NW 0.9 mph 1 mph 68% 0 in 49 W/m2
11:19 67.5 °F 56.1 °F 30.3 in East 0.9 mph 3 mph 67% 0 in 51 W/m2
11:24 67.6 °F 56.3 °F 30.3 in ESE 2 mph 4 mph 67% 0 in 53 W/m2
11:29 68 °F 56.7 °F 30.3 in SE 2 mph 3 mph 67% 0 in 53 W/m2
11:34 68.5 °F 56.7 °F 30.3 in ENE 4 mph 5 mph 66% 0 in 53 W/m2
11:39 68.9 °F 56.7 °F 30.3 in North 0.9 mph 2 mph 65% 0 in 125 W/m2
11:44 69.1 °F 56.5 °F 30.3 in Calm   3 mph 64% 0 in 545 W/m2
11:49 69.4 °F 56.7 °F 30.3 in NE 0.9 mph 3 mph 64% 0 in 603 W/m2
11:54 70.2 °F 56.5 °F 30.3 in NE 0.9 mph 2 mph 62% 0 in 612 W/m2
11:59 70.3 °F 56.7 °F 30.3 in Calm   4 mph 62% 0 in 621 W/m2
12:04 70.9 °F 57.2 °F 30.3 in Calm   1 mph 62% 0 in 626 W/m2
12:09 71.2 °F 57 °F 30.3 in Calm   3 mph 61% 0 in 635 W/m2
12:14 72 °F 56.8 °F 30.3 in WNW 0.9 mph 2 mph 59% 0 in 643 W/m2
12:19 72.5 °F 56.8 °F 30.3 in East 2.9 mph 4 mph 58% 0 in 649 W/m2
12:24 73 °F 57.4 °F 30.3 in NE 0.9 mph 3 mph 58% 0 in 654 W/m2
12:29 73.2 °F 57 °F 30.3 in SSE 0.9 mph 2 mph 57% 0 in 661 W/m2
12:34 73.2 °F 56.7 °F 30.3 in Calm   1 mph 56% 0 in 666 W/m2
12:39 73.6 °F 56.8 °F 30.3 in Calm     56% 0 in 673 W/m2
12:44 73.9 °F 56.3 °F 30.3 in East 0.9 mph 3 mph 54% 0 in 679 W/m2
12:49 74.1 °F 56.5 °F 30.3 in Calm   2 mph 54% 0 in 680 W/m2
12:54 74.3 °F 56.7 °F 30.3 in South 0.9 mph 1 mph 54% 0 in 684 W/m2
12:59 74.7 °F 56.5 °F 30.3 in NE 2 mph 5 mph 53% 0 in 686 W/m2
13:04 74.5 °F 56.3 °F 30.3 in NW 2 mph 3 mph 53% 0 in 686 W/m2
13:09 74.5 °F 55.8 °F 30.3 in Calm   1 mph 52% 0 in 689 W/m2
13:14 74.8 °F 56.1 °F 30.3 in East 6 mph 6 mph 52% 0 in 694 W/m2
13:19 75.4 °F 55.9 °F 30.3 in SE 0.9 mph 2 mph 51% 0 in 696 W/m2
13:24 75.9 °F 55.9 °F 30.3 in East 0.9 mph 4 mph 50% 0 in 694 W/m2
13:29 76.3 °F 55.8 °F 30.3 in Calm   2 mph 49% 0 in 696 W/m2
13:34 76.5 °F 56.5 °F 30.3 in SE 2 mph 4 mph 50% 0 in 696 W/m2
13:39 76.5 °F 55.9 °F 30.3 in Calm   1 mph 49% 0 in 698 W/m2
13:44 76.8 °F 55.6 °F 30.3 in NE 2 mph 5 mph 48% 0 in 698 W/m2
13:49 77.4 °F 55.6 °F 30.3 in Calm   3 mph 47% 0 in 698 W/m2
13:54 77.7 °F 55.2 °F 30.3 in ENE 0.9 mph 2 mph 46% 0 in 698 W/m2
13:59 77.9 °F 54.3 °F 30.3 in NE 0.9 mph 5 mph 44% 0 in 700 W/m2
14:04 77.7 °F 55.2 °F 30.3 in Calm   2 mph 46% 0 in 694 W/m2
14:09 78.1 °F 55 °F 30.3 in NE 2 mph 5 mph 45% 0 in 694 W/m2
14:14 78.4 °F 55.4 °F 30.3 in ESE 2.9 mph 3 mph 45% 0 in 693 W/m2
14:19 79 °F 55.8 °F 30.3 in Calm   7 mph 45% 0 in 693 W/m2
14:24 79.3 °F 53.6 °F 30.3 in North 0.9 mph 3 mph 41% 0 in 689 W/m2
14:29 79.5 °F 53.8 °F 30.3 in NNW 2 mph 6 mph 41% 0 in 686 W/m2
14:34 80.1 °F 54.3 °F 30.3 in ENE 4 mph 4 mph 41% 0 in 682 W/m2
14:39 80.2 °F 53.1 °F 30.3 in ENE 2 mph 6 mph 39% 0 in 682 W/m2
14:44 80.4 °F 52.5 °F 30.3 in Calm   3 mph 38% 0 in 677 W/m2
14:49 80.4 °F 54.5 °F 30.3 in NE 0.9 mph 6 mph 41% 0 in 673 W/m2
14:54 80.6 °F 53.4 °F 30.2 in East 0.9 mph 3 mph 39% 0 in 666 W/m2
14:59 81 °F 53.6 °F 30.2 in NE 0.9 mph 4 mph 39% 0 in 659 W/m2
15:04 81.1 °F 53.8 °F 30.2 in Calm   2 mph 39% 0 in 654 W/m2
15:09 81.3 °F 52.5 °F 30.2 in NE 2 mph 4 mph 37% 0 in 649 W/m2
15:14 81.3 °F 52.5 °F 30.2 in NNE 2 mph 3 mph 37% 0 in 643 W/m2
15:19 81.5 °F 52 °F 30.2 in East 2.9 mph 4 mph 36% 0 in 638 W/m2
15:24 81.9 °F 52.3 °F 30.2 in ENE 2.9 mph 5 mph 36% 0 in 629 W/m2
15:29 82 °F 51.6 °F 30.2 in East 2.9 mph 4 mph 35% 0 in 622 W/m2
15:34 82 °F 51.6 °F 30.2 in East 4.9 mph 5 mph 35% 0 in 615 W/m2
15:39 82.6 °F 52.2 °F 30.2 in SE 0.9 mph 2 mph 35% 0 in 608 W/m2
15:44 82.8 °F 51.4 °F 30.2 in SSE 0.9 mph 1 mph 34% 0 in 601 W/m2
15:49 83.1 °F 52.7 °F 30.2 in Calm   1 mph 35% 0 in 594 W/m2
15:54 83.3 °F 51.3 °F 30.2 in East 2 mph 3 mph 33% 0 in 582 W/m2
15:59 83.5 °F 52.2 °F 30.2 in Calm   1 mph 34% 0 in 577 W/m2
16:05 83.8 °F 52.5 °F 30.2 in SE 0.9 mph 2 mph 34% 0 in 568 W/m2
16:10 83.8 °F 50.9 °F 30.2 in West 2 mph 3 mph 32% 0 in 559 W/m2
16:15 83.8 °F 50.9 °F 30.2 in ENE 0.9 mph 1 mph 32% 0 in 548 W/m2
16:20 83.8 °F 51.6 °F 30.2 in ESE 2 mph 3 mph 33% 0 in 538 W/m2
16:25 83.8 °F 50 °F 30.2 in Calm   4 mph 31% 0 in 533 W/m2
16:30 83.8 °F 50 °F 30.2 in East 2.9 mph 4 mph 31% 0 in 522 W/m2
16:35 83.8 °F 49.1 °F 30.2 in NNE 2 mph 4 mph 30% 0 in 513 W/m2
16:40 84.2 °F 49.5 °F 30.2 in ENE 2 mph 4 mph 30% 0 in 504 W/m2
16:45 84 °F 48.4 °F 30.2 in Calm   2 mph 29% 0 in 494 W/m2
16:50 84 °F 48.4 °F 30.2 in ENE 0.9 mph 1 mph 29% 0 in 482 W/m2
16:55 84 °F 49.3 °F 30.2 in East 2.9 mph 4 mph 30% 0 in 469 W/m2
17:00 83.7 °F 46.2 °F 30.2 in SE 4 mph 4 mph 27% 0 in 457 W/m2
17:05 83.5 °F 46.9 °F 30.2 in ENE 0.9 mph 4 mph 28% 0 in 443 W/m2
17:10 83.7 °F 44.1 °F 30.2 in Calm   1 mph 25% 0 in 434 W/m2
17:15 84 °F 47.5 °F 30.2 in East 0.9 mph 2 mph 28% 0 in 422 W/m2
17:20 83.7 °F 40.8 °F 30.2 in Calm   3 mph 22% 0 in 408 W/m2
17:25 83.7 °F 45.1 °F 30.2 in ENE 0.9 mph 1 mph 26% 0 in 396 W/m2
17:30 83.5 °F 39.4 °F 30.2 in Calm   3 mph 21% 0 in 385 W/m2
17:35 83.7 °F 45.1 °F 30.2 in Calm   1 mph 26% 0 in 374 W/m2
17:40 83.7 °F 44.1 °F 30.2 in SE 2 mph 2 mph 25% 0 in 359 W/m2
17:45 83.5 °F 43 °F 30.2 in SE 0.9 mph 1 mph 24% 0 in 343 W/m2
17:50 83.3 °F 43.9 °F 30.2 in ESE 2 mph 2 mph 25% 0 in 329 W/m2
17:55 82.9 °F 42.4 °F 30.2 in Calm   1 mph 24% 0 in 311 W/m2
18:00 82.6 °F 44.2 °F 30.2 in Calm   1 mph 26% 0 in 292 W/m2
18:05 82.6 °F 44.2 °F 30.2 in SE 0.9 mph 2 mph 26% 0 in 281 W/m2
18:10 82.6 °F 43.2 °F 30.2 in Calm   1 mph 25% 0 in 264 W/m2
18:15 82.6 °F 45.1 °F 30.2 in Calm   2 mph 27% 0 in 251 W/m2
18:20 82.6 °F 45.1 °F 30.2 in Calm     27% 0 in 234 W/m2
18:25 82.6 °F 46.2 °F 30.2 in SE 0.9 mph 2 mph 28% 0 in 220 W/m2
18:30 82.8 °F 46.4 °F 30.2 in SE 0.9 mph 1 mph 28% 0 in 206 W/m2
18:35 82.8 °F 47.3 °F 30.2 in SE 0.9 mph 2 mph 29% 0 in 188 W/m2
18:40 82.6 °F 47.1 °F 30.2 in SE 2 mph 2 mph 29% 0 in 174 W/m2
18:46 82.2 °F 46.8 °F 30.2 in SE 0.9 mph 2 mph 29% 0 in 158 W/m2
18:51 81.9 °F 47.3 °F 30.2 in SE 0.9 mph 2 mph 30% 0 in 139 W/m2
18:56 81.1 °F 46.8 °F 30.2 in SE 0.9 mph 2 mph 30% 0 in 123 W/m2
19:01 80.8 °F 47.3 °F 30.2 in SSE 2 mph 2 mph 31% 0 in 81 W/m2
19:06 80.2 °F 46.9 °F 30.2 in SSE 0.9 mph 2 mph 31% 0 in 26 W/m2
19:11 79.2 °F 46.8 °F 30.2 in SSE 2 mph 2 mph 32% 0 in 25 W/m2
19:16 78.1 °F 46.6 °F 30.2 in SSE 2 mph 2 mph 33% 0 in 21 W/m2
19:21 76.8 °F 45.5 °F 30.2 in SSE 2 mph 2 mph 33% 0 in 19 W/m2
19:26 75.9 °F 46.2 °F 30.2 in SSE 0.9 mph 2 mph 35% 0 in 18 W/m2
19:31 75 °F 44.8 °F 30.2 in Calm   1 mph 34% 0 in 16 W/m2
19:36 74.3 °F 45.7 °F 30.2 in Calm   1 mph 36% 0 in 12 W/m2
19:41 73.6 °F 45 °F 30.2 in Calm   2 mph 36% 0 in 11 W/m2
19:46 72.9 °F 45.1 °F 30.2 in Calm     37% 0 in 7 W/m2
19:51 72.3 °F 45.3 °F 30.2 in Calm     38% 0 in 5 W/m2
19:56 71.8 °F 44.8 °F 30.2 in Calm     38% 0 in 0 W/m2
20:01 71.2 °F 44.2 °F 30.2 in Calm     38% 0 in 0 W/m2
20:06 70.7 °F 44.6 °F 30.2 in Calm     39% 0 in 0 W/m2
20:11 70.2 °F 44.1 °F 30.2 in Calm     39% 0 in 0 W/m2
20:16 69.6 °F 44.2 °F 30.2 in Calm     40% 0 in 0 W/m2
20:21 69.3 °F 43.9 °F 30.2 in Calm     40% 0 in 0 W/m2
20:26 68.7 °F 44.8 °F 30.2 in Calm     42% 0 in 0 W/m2
20:31 68.5 °F 44.6 °F 30.2 in Calm     42% 0 in 0 W/m2
20:36 68 °F 44.1 °F 30.2 in Calm     42% 0 in 0 W/m2
20:41 67.5 °F 44.2 °F 30.2 in Calm     43% 0 in 0 W/m2
20:46 67.1 °F 43.9 °F 30.2 in Calm     43% 0 in 0 W/m2
20:51 66.7 °F 43.5 °F 30.2 in Calm     43% 0 in 0 W/m2
20:57 66.4 °F 44.4 °F 30.2 in Calm     45% 0 in 0 W/m2
21:02 66 °F 44.6 °F 30.2 in Calm     46% 0 in 0 W/m2
21:07 65.7 °F 44.2 °F 30.2 in Calm     46% 0 in 0 W/m2
21:12 65.3 °F 44.6 °F 30.2 in Calm     47% 0 in 0 W/m2
21:17 64.9 °F 44.2 °F 30.2 in Calm     47% 0 in 0 W/m2
21:22 64.8 °F 44.1 °F 30.2 in Calm     47% 0 in 0 W/m2
21:27 64.4 °F 44.2 °F 30.2 in Calm     48% 0 in 0 W/m2
21:32 64 °F 44.4 °F 30.2 in Calm     49% 0 in 0 W/m2
21:37 63.9 °F 44.8 °F 30.2 in Calm     50% 0 in 0 W/m2
21:42 63.5 °F 44.6 °F 30.2 in Calm     50% 0 in 0 W/m2
21:47 63.3 °F 44.4 °F 30.2 in Calm     50% 0 in 0 W/m2
21:52 63.1 °F 44.8 °F 30.2 in Calm     51% 0 in 0 W/m2
21:57 63 °F 44.1 °F 30.2 in Calm     50% 0 in 0 W/m2
22:02 62.8 °F 43.9 °F 30.2 in Calm     50% 0 in 0 W/m2
22:07 62.6 °F 44.2 °F 30.2 in Calm     51% 0 in 0 W/m2
22:12 62.4 °F 44.6 °F 30.2 in Calm     52% 0 in 0 W/m2
22:17 62.2 °F 43.9 °F 30.2 in Calm     51% 0 in 0 W/m2
22:22 62.2 °F 44.4 °F 30.2 in Calm     52% 0 in 0 W/m2
22:27 62.1 °F 44.2 °F 30.2 in Calm     52% 0 in 0 W/m2
22:32 62.1 °F 44.2 °F 30.2 in Calm     52% 0 in 0 W/m2
22:37 61.9 °F 44.6 °F 30.2 in Calm     53% 0 in 0 W/m2
22:42 61.5 °F 44.2 °F 30.2 in Calm     53% 0 in 0 W/m2
22:48 61.5 °F 44.2 °F 30.2 in Calm     53% 0 in 0 W/m2
22:53 61.3 °F 44.1 °F 30.2 in Calm     53% 0 in 0 W/m2
22:58 61.2 °F 44.4 °F 30.2 in Calm     54% 0 in 0 W/m2
23:03 61 °F 44.8 °F 30.2 in Calm     55% 0 in 0 W/m2
23:08 61 °F 44.8 °F 30.2 in Calm     55% 0 in 0 W/m2
23:13 60.6 °F 44.4 °F 30.2 in Calm     55% 0 in 0 W/m2
23:18 60.4 °F 44.2 °F 30.2 in Calm     55% 0 in 0 W/m2
23:23 60.4 °F 44.6 °F 30.2 in Calm     56% 0 in 0 W/m2
23:28 60.4 °F 45.1 °F 30.2 in Calm     57% 0 in 0 W/m2
23:33 60.3 °F 45 °F 30.2 in Calm     57% 0 in 0 W/m2
23:38 60.1 °F 45.3 °F 30.2 in Calm     58% 0 in 0 W/m2
23:43 59.7 °F 45 °F 30.2 in Calm     58% 0 in 0 W/m2
23:48 59.5 °F 45.1 °F 30.2 in Calm     59% 0 in 0 W/m2
23:53 59.4 °F 45 °F 30.2 in Calm     59% 0 in 0 W/m2
23:58 59.4 °F 45.5 °F 30.2 in Calm     60% 0 in 0 W/m2
Juneau County Weather
Compliments of Weather Underground - 2 mb